Terminal Aerodrome Forecast
Issued by NWS

Home | Current Version | Previous Version | Graphics & Text | Print | Product List | Glossary On
Versions: 1 2 3 4 5 6 7 8 9 10 11 12 13 14 15 16
223
FTUS43 KMPX 252336
TAFAXN
TAF
KAXN 252336Z 2600/2624 24009KT P6SM SCT015 OVC035
      TEMPO 2601/2604 1 1/2SM -SN BR BKN015
     FM260400 23005KT 2SM -SN BR SCT009 OVC015
     FM260600 22004KT 6SM BR BKN015 OVC035
     FM261500 29012G18KT P6SM BKN035=

USA.gov is the U.S. government's official web portal to all federal, state and local government web resources and services.